Time;durP1;ratioP1;P1;durP2;ratioP2;P2;SDS_P1;SDS_P2;PMS_P1;PMS_P2;Temp;Humidity;BMP_temperature;BMP_pressure;BME280_temperature;BME280_humidity;BME280_pressure;Samples;Min_cycle;Max_cycle;Signal;HPM_P1;HPM_P2
2022/08/25 00:01:42;;;;;;;10.00;9.60;;;;;;;20.92;100.00;100711.72;5053299;28;20032;-66
2022/08/25 00:04:12;;;;;;;10.20;9.70;;;;;;;20.91;100.00;100712.78;5053675;28;20032;-66
2022/08/25 00:06:40;;;;;;;10.50;10.00;;;;;;;20.91;100.00;100713.59;5053580;28;20049;-66
2022/08/25 00:09:07;;;;;;;10.25;9.77;;;;;;;20.81;100.00;100720.66;5052968;28;20505;-66
2022/08/25 00:11:35;;;;;;;10.40;9.90;;;;;;;20.91;100.00;100715.47;5055954;28;20063;-66
2022/08/25 00:14:08;;;;;;;9.88;9.48;;;;;;;20.84;100.00;100717.47;5052736;28;20492;-66
2022/08/25 00:16:33;;;;;;;10.43;9.93;;;;;;;20.97;100.00;100717.22;5052817;28;20032;-65
2022/08/25 00:19:04;;;;;;;10.23;9.73;;;;;;;20.90;100.00;100714.66;5052672;28;20040;-67
2022/08/25 00:21:30;;;;;;;10.00;9.60;;;;;;;20.72;100.00;100717.53;5052955;28;20029;-66
2022/08/25 00:23:57;;;;;;;10.10;9.68;;;;;;;20.78;100.00;100715.72;5060344;28;20025;-66
2022/08/25 00:26:22;;;;;;;10.05;9.60;;;;;;;20.74;100.00;100722.66;5057743;28;20221;-66
2022/08/25 00:28:48;;;;;;;9.90;9.50;;;;;;;20.76;100.00;100721.38;5052790;28;20104;-66
2022/08/25 00:31:17;;;;;;;10.13;9.63;;;;;;;20.76;100.00;100715.16;5063832;28;20033;-65
2022/08/25 00:33:44;;;;;;;10.30;9.80;;;;;;;20.45;100.00;100714.50;5051123;28;20501;-66
2022/08/25 00:36:13;;;;;;;10.45;9.95;;;;;;;20.56;100.00;100710.13;5052405;28;20040;-66
2022/08/25 00:38:39;;;;;;;10.23;9.77;;;;;;;20.71;100.00;100715.84;5052374;28;20045;-66
2022/08/25 00:41:06;;;;;;;9.95;9.55;;;;;;;20.53;100.00;100706.03;5052347;28;20040;-66
2022/08/25 00:43:41;;;;;;;9.93;9.52;;;;;;;20.39;100.00;100707.31;5062101;28;20388;-65
2022/08/25 00:46:08;;;;;;;9.95;9.55;;;;;;;20.33;100.00;100706.38;5052656;28;20064;-66
2022/08/25 00:48:34;;;;;;;10.50;10.00;;;;;;;20.32;100.00;100710.13;5060929;28;20020;-66
2022/08/25 00:51:01;;;;;;;10.32;9.82;;;;;;;20.22;100.00;100707.19;5052289;28;20443;-66
2022/08/25 00:53:29;;;;;;;10.30;9.80;;;;;;;20.35;100.00;100704.28;5052165;28;20017;-66
2022/08/25 00:55:54;;;;;;;9.95;9.55;;;;;;;20.38;100.00;100700.28;5052063;28;20487;-66
2022/08/25 00:58:24;;;;;;;10.05;9.65;;;;;;;20.21;100.00;100696.66;5051679;28;20021;-68
2022/08/25 01:00:54;;;;;;;9.90;9.50;;;;;;;20.10;100.00;100700.97;5038962;28;20040;-66
2022/08/25 01:03:22;;;;;;;9.98;9.57;;;;;;;20.12;100.00;100698.84;5062201;28;20029;-66
2022/08/25 01:05:49;;;;;;;10.07;9.63;;;;;;;20.39;100.00;100693.84;5053430;28;20036;-65
2022/08/25 01:08:19;;;;;;;10.30;9.80;;;;;;;20.66;100.00;100695.00;5051845;28;20032;-66
2022/08/25 01:10:47;;;;;;;9.80;9.40;;;;;;;19.99;100.00;100691.84;5050533;28;20115;-65
2022/08/25 01:13:19;;;;;;;9.90;9.50;;;;;;;19.80;100.00;100691.09;5051872;28;20095;-66
2022/08/25 01:15:46;;;;;;;10.20;9.70;;;;;;;19.85;100.00;100693.94;5061915;28;20032;-66
2022/08/25 01:18:13;;;;;;;10.38;9.88;;;;;;;19.79;100.00;100696.72;5054256;28;20028;-66
2022/08/25 01:20:39;;;;;;;10.23;9.75;;;;;;;19.75;100.00;100696.34;5051550;28;20111;-65
2022/08/25 01:23:04;;;;;;;10.18;9.70;;;;;;;19.83;100.00;100684.44;5051685;28;20593;-66
2022/08/25 01:25:36;;;;;;;10.00;9.60;;;;;;;19.74;100.00;100681.25;5051608;28;20021;-65
2022/08/25 01:28:02;;;;;;;9.70;9.30;;;;;;;19.60;100.00;100685.19;5066930;28;20029;-66
2022/08/25 01:30:28;;;;;;;10.07;9.60;;;;;;;19.57;100.00;100681.09;5037899;28;20036;-66
2022/08/25 01:32:53;;;;;;;10.20;9.70;;;;;;;19.56;100.00;100679.44;5052877;28;20033;-66
2022/08/25 01:35:19;;;;;;;9.98;9.57;;;;;;;19.50;100.00;100674.97;5062784;28;20090;-66
2022/08/25 01:37:45;;;;;;;10.05;9.65;;;;;;;19.46;100.00;100683.72;5050792;28;20033;-66
2022/08/25 01:40:11;;;;;;;10.50;10.00;;;;;;;19.41;100.00;100684.44;5051340;28;20071;-67
2022/08/25 01:43:04;;;;;;;9.90;9.50;;;;;;;19.29;100.00;100673.63;5051159;28;20032;-66
2022/08/25 01:45:30;;;;;;;10.00;9.60;;;;;;;19.25;100.00;100675.13;5045839;28;20037;-66
2022/08/25 01:47:56;;;;;;;10.23;9.73;;;;;;;19.27;100.00;100680.28;5051338;28;20021;-66
2022/08/25 01:50:21;;;;;;;10.18;9.70;;;;;;;19.22;100.00;100675.56;5052392;28;20029;-66
2022/08/25 01:52:58;;;;;;;9.90;9.50;;;;;;;19.17;100.00;100680.00;5037831;28;20127;-65
2022/08/25 01:55:24;;;;;;;10.38;9.88;;;;;;;19.11;100.00;100686.31;5051308;28;20052;-65
2022/08/25 01:57:50;;;;;;;10.60;10.10;;;;;;;19.00;100.00;100688.69;5055050;28;20053;-66
2022/08/25 02:00:17;;;;;;;9.95;9.55;;;;;;;19.06;100.00;100689.66;5055300;28;20098;-66
2022/08/25 02:02:43;;;;;;;10.32;9.82;;;;;;;19.13;100.00;100694.94;5055103;28;20017;-66
2022/08/25 02:05:12;;;;;;;10.30;9.80;;;;;;;19.04;100.00;100686.38;5055040;28;20800;-66
2022/08/25 02:07:37;;;;;;;10.00;9.55;;;;;;;18.95;100.00;100683.19;5058110;28;20024;-66
2022/08/25 02:10:05;;;;;;;10.38;9.88;;;;;;;19.03;100.00;100682.06;5054511;28;20151;-66
2022/08/25 02:12:32;;;;;;;10.02;9.60;;;;;;;18.90;100.00;100682.22;5055086;28;20021;-65
2022/08/25 02:15:00;;;;;;;9.80;9.40;;;;;;;18.86;100.00;100679.13;5055182;28;20032;-66
2022/08/25 02:17:27;;;;;;;9.82;9.43;;;;;;;18.91;100.00;100679.28;5054946;28;20107;-65
2022/08/25 02:19:55;;;;;;;9.95;9.50;;;;;;;18.87;100.00;100677.28;5054780;28;20466;-66
2022/08/25 02:22:20;;;;;;;10.45;9.95;;;;;;;18.87;100.00;100672.72;5054958;28;20112;-66
2022/08/25 02:24:46;;;;;;;10.30;9.80;;;;;;;18.85;100.00;100661.38;5054912;28;20103;-67
2022/08/25 02:27:12;;;;;;;10.20;9.70;;;;;;;18.83;100.00;100668.03;5054273;28;20021;-65
2022/08/25 02:29:38;;;;;;;10.25;9.75;;;;;;;18.72;100.00;100669.59;5053641;28;20538;-66
2022/08/25 02:32:04;;;;;;;9.85;9.45;;;;;;;18.66;100.00;100678.56;5055022;28;20067;-66
2022/08/25 02:34:30;;;;;;;10.60;10.10;;;;;;;18.66;100.00;100681.25;5054775;28;20480;-65
2022/08/25 02:36:55;;;;;;;10.40;9.90;;;;;;;18.62;100.00;100677.34;5053113;28;20132;-65
2022/08/25 02:39:21;;;;;;;10.05;9.60;;;;;;;18.63;100.00;100674.41;5054449;28;20029;-65
2022/08/25 02:41:46;;;;;;;10.20;9.70;;;;;;;18.60;100.00;100680.25;5054481;28;20036;-66
2022/08/25 02:44:12;;;;;;;10.10;9.60;;;;;;;18.56;100.00;100678.22;5054450;28;20078;-65
2022/08/25 02:46:38;;;;;;;10.38;9.88;;;;;;;18.60;100.00;100674.88;5053497;28;20508;-67
2022/08/25 02:49:04;;;;;;;10.07;9.65;;;;;;;18.60;100.00;100682.13;5053165;28;20024;-65
2022/08/25 02:51:30;;;;;;;10.20;9.70;;;;;;;18.57;100.00;100685.25;5054531;28;20025;-66
2022/08/25 02:53:57;;;;;;;10.70;10.20;;;;;;;18.53;100.00;100695.63;5054390;28;20112;-66
2022/08/25 02:56:24;;;;;;;9.90;9.50;;;;;;;18.56;100.00;100694.34;5053774;28;20415;-66
2022/08/25 02:58:50;;;;;;;10.55;10.05;;;;;;;18.55;100.00;100698.91;5054564;28;20082;-66
2022/08/25 03:01:16;;;;;;;10.30;9.80;;;;;;;18.56;100.00;100697.84;5054323;28;20493;-66
2022/08/25 03:03:44;;;;;;;10.25;9.75;;;;;;;18.59;100.00;100702.78;5054101;28;20523;-66
2022/08/25 03:06:13;;;;;;;10.60;10.10;;;;;;;18.50;100.00;100698.75;5069094;28;20489;-66
2022/08/25 03:08:40;;;;;;;10.30;9.80;;;;;;;18.48;100.00;100708.91;5053223;28;20530;-66
2022/08/25 03:11:06;;;;;;;10.00;9.60;;;;;;;18.57;100.00;100707.56;5053017;28;20025;-66
2022/08/25 03:13:32;;;;;;;9.90;9.50;;;;;;;18.32;100.00;100710.28;5054163;28;20464;-66
2022/08/25 03:15:59;;;;;;;10.10;9.65;;;;;;;18.35;100.00;100709.84;5053872;28;20098;-65
2022/08/25 03:18:25;;;;;;;10.00;9.60;;;;;;;18.41;100.00;100708.13;5053584;28;20527;-66
2022/08/25 03:20:50;;;;;;;10.25;9.75;;;;;;;18.45;100.00;100715.53;5065778;28;20032;-66
2022/08/25 03:23:16;;;;;;;10.43;9.93;;;;;;;18.30;100.00;100714.25;5054493;28;20036;-66
2022/08/25 03:28:26;;;;;;;10.13;9.65;;;;;;;18.38;100.00;100713.97;5053696;28;20035;-66
2022/08/25 03:30:52;;;;;;;10.18;9.68;;;;;;;18.47;100.00;100718.81;5053470;28;20024;-66
2022/08/25 03:33:18;;;;;;;9.98;9.55;;;;;;;18.63;100.00;100725.47;5053676;28;20033;-65
2022/08/25 03:35:45;;;;;;;10.40;9.90;;;;;;;18.52;100.00;100720.03;5052967;28;20017;-66
2022/08/25 03:38:11;;;;;;;10.05;9.63;;;;;;;18.77;100.00;100726.19;5053346;28;20028;-66
2022/08/25 03:40:37;;;;;;;10.10;9.65;;;;;;;18.89;100.00;100721.72;5054170;28;20047;-66
2022/08/25 03:43:02;;;;;;;10.18;9.68;;;;;;;19.20;100.00;100727.97;5053528;28;20025;-66
2022/08/25 03:45:28;;;;;;;10.25;9.75;;;;;;;19.37;100.00;100728.16;5053289;28;20049;-66
2022/08/25 03:47:53;;;;;;;10.18;9.73;;;;;;;19.56;100.00;100721.69;5049333;28;20028;-66
2022/08/25 03:50:21;;;;;;;10.60;10.10;;;;;;;19.94;100.00;100725.91;5049677;28;20029;-66
2022/08/25 03:52:52;;;;;;;10.40;9.90;;;;;;;20.10;100.00;100734.13;5053007;28;20107;-66
2022/08/25 03:55:18;;;;;;;10.23;9.73;;;;;;;20.38;100.00;100736.13;5057924;28;20035;-66
2022/08/25 03:57:44;;;;;;;10.50;10.00;;;;;;;20.35;100.00;100738.50;5065212;28;20039;-66
2022/08/25 04:00:11;;;;;;;10.20;9.70;;;;;;;21.01;100.00;100736.47;5051828;28;20388;-67
2022/08/25 04:02:36;;;;;;;10.13;9.63;;;;;;;21.20;100.00;100729.81;5052920;28;20476;-66
2022/08/25 04:05:04;;;;;;;10.90;10.40;;;;;;;22.71;100.00;100732.66;5052917;28;20078;-67
2022/08/25 04:07:29;;;;;;;10.70;10.20;;;;;;;23.21;100.00;100739.81;5052595;28;20025;-66
2022/08/25 04:09:55;;;;;;;10.13;9.73;;;;;;;23.83;100.00;100733.97;5051579;28;20021;-66
2022/08/25 04:12:21;;;;;;;10.00;9.60;;;;;;;24.47;100.00;100741.28;5052814;28;20032;-66
2022/08/25 04:14:46;;;;;;;10.30;9.80;;;;;;;24.64;100.00;100741.91;5056271;28;20396;-66
2022/08/25 04:17:13;;;;;;;10.15;9.75;;;;;;;25.76;100.00;100738.81;5056796;28;20504;-66
2022/08/25 04:19:38;;;;;;;10.50;10.00;;;;;;;26.98;100.00;100742.19;5039087;28;20110;-65
2022/08/25 04:22:04;;;;;;;10.50;10.02;;;;;;;27.43;100.00;100743.09;5052713;28;20076;-66
2022/08/25 04:24:29;;;;;;;9.88;9.48;;;;;;;27.80;100.00;100736.31;5052704;28;20053;-65
2022/08/25 04:26:55;;;;;;;10.48;9.98;;;;;;;28.30;97.92;100734.28;5050907;28;20039;-65
2022/08/25 04:29:22;;;;;;;10.00;9.60;;;;;;;29.09;93.27;100749.25;5050439;28;20057;-65
2022/08/25 04:31:51;;;;;;;10.20;9.80;;;;;;;29.39;90.40;100744.50;5052530;28;20032;-66
2022/08/25 04:34:20;;;;;;;10.50;10.00;;;;;;;30.36;86.86;100745.72;5052815;28;20094;-66
2022/08/25 04:36:46;;;;;;;10.07;9.68;;;;;;;30.42;83.11;100742.59;5052212;28;20047;-66
2022/08/25 04:39:12;;;;;;;9.85;9.45;;;;;;;30.46;83.14;100742.78;5046096;28;20026;-67
2022/08/25 04:41:38;;;;;;;10.23;9.82;;;;;;;31.21;79.35;100738.81;5052056;28;20108;-65
2022/08/25 04:44:04;;;;;;;10.50;10.00;;;;;;;31.08;76.34;100738.56;5050692;28;20025;-63
2022/08/25 04:46:33;;;;;;;10.48;9.98;;;;;;;32.16;74.86;100750.59;5074688;28;20048;-63
2022/08/25 04:49:01;;;;;;;10.43;9.93;;;;;;;31.44;73.36;100740.53;5057210;28;20526;-63
2022/08/25 04:51:30;;;;;;;10.30;9.90;;;;;;;30.78;79.36;100745.47;5051670;28;20023;-64
2022/08/25 04:54:04;;;;;;;10.00;9.60;;;;;;;31.58;72.08;100744.03;5052149;28;20047;-64
2022/08/25 04:56:32;;;;;;;10.43;9.95;;;;;;;30.73;73.88;100734.63;5052230;28;20048;-63
2022/08/25 04:59:02;;;;;;;10.25;9.85;;;;;;;32.53;67.42;100740.31;5052254;28;20036;-64
2022/08/25 05:01:28;;;;;;;10.73;10.23;;;;;;;33.36;63.67;100743.13;5050788;28;20492;-65
2022/08/25 05:03:58;;;;;;;10.07;9.68;;;;;;;33.94;60.63;100748.19;5051660;28;20051;-63
2022/08/25 05:06:25;;;;;;;9.70;9.30;;;;;;;33.13;59.30;100746.03;5051923;28;20067;-63
2022/08/25 05:08:51;;;;;;;10.30;9.90;;;;;;;33.91;55.46;100748.03;5051486;28;20417;-63
2022/08/25 05:11:18;;;;;;;10.25;9.85;;;;;;;34.62;53.99;100743.63;5051631;28;20040;-63
2022/08/25 05:13:46;;;;;;;10.00;9.60;;;;;;;34.83;52.79;100735.41;5052169;28;20025;-64
2022/08/25 05:16:12;;;;;;;9.82;9.43;;;;;;;35.20;49.57;100738.44;5049084;28;20495;-67
2022/08/25 05:18:38;;;;;;;10.30;9.90;;;;;;;34.72;49.51;100745.19;5051531;28;20029;-67
2022/08/25 05:21:16;;;;;;;10.15;9.75;;;;;;;35.70;45.76;100749.44;5051415;28;20756;-67
2022/08/25 05:23:42;;;;;;;9.95;9.55;;;;;;;36.41;44.19;100742.06;5051762;28;20021;-66
2022/08/25 05:26:12;;;;;;;10.05;9.65;;;;;;;36.02;44.60;100741.50;5051475;28;20398;-67
2022/08/25 05:28:40;;;;;;;9.90;9.50;;;;;;;35.75;43.79;100744.84;5051452;28;20024;-67
2022/08/25 05:31:08;;;;;;;9.93;9.52;;;;;;;36.21;40.65;100740.97;5060973;28;20028;-68
2022/08/25 05:33:35;;;;;;;10.20;9.80;;;;;;;36.31;40.86;100743.28;5051310;28;20043;-67
2022/08/25 05:36:01;;;;;;;10.10;9.70;;;;;;;34.40;45.58;100734.78;5038634;28;20017;-68
2022/08/25 05:38:27;;;;;;;10.10;9.70;;;;;;;36.29;43.32;100739.28;5050857;28;20036;-67
2022/08/25 05:40:57;;;;;;;10.30;9.90;;;;;;;36.36;42.05;100737.56;5051414;28;20025;-68
2022/08/25 05:43:23;;;;;;;10.10;9.70;;;;;;;36.81;40.23;100731.13;5051252;28;20025;-67
2022/08/25 05:45:49;;;;;;;10.02;9.63;;;;;;;36.24;40.99;100738.34;5051205;28;20514;-66
2022/08/25 05:48:15;;;;;;;10.10;9.70;;;;;;;37.06;39.93;100734.69;5051278;28;20108;-67
2022/08/25 05:50:41;;;;;;;10.07;9.68;;;;;;;37.36;40.74;100731.66;5056390;28;20484;-66
2022/08/25 05:53:07;;;;;;;10.20;9.80;;;;;;;37.06;39.93;100732.72;5051548;28;20025;-66
2022/08/25 05:55:33;;;;;;;10.10;9.70;;;;;;;37.43;39.49;100731.88;5051173;28;20028;-66
2022/08/25 05:57:59;;;;;;;10.23;9.82;;;;;;;37.30;37.86;100725.53;5051423;28;20017;-66
2022/08/25 06:00:25;;;;;;;10.10;9.70;;;;;;;37.34;37.57;100726.47;5056634;28;20487;-67
2022/08/25 06:02:50;;;;;;;10.20;9.80;;;;;;;37.28;38.27;100723.13;5048237;28;20044;-71
2022/08/25 06:05:19;;;;;;;10.40;9.95;;;;;;;36.89;37.56;100735.78;5046584;28;20025;-71
2022/08/25 06:07:51;;;;;;;10.50;10.00;;;;;;;37.86;36.29;100736.66;5046352;28;20020;-70
2022/08/25 06:10:19;;;;;;;10.30;9.90;;;;;;;37.98;35.88;100741.34;5044301;28;20551;-69
2022/08/25 06:12:46;;;;;;;10.10;9.70;;;;;;;38.23;35.29;100739.22;5046811;28;20300;-66
2022/08/25 06:15:17;;;;;;;9.85;9.45;;;;;;;37.67;35.50;100736.50;5046143;28;20033;-68
2022/08/25 06:17:43;;;;;;;10.38;9.90;;;;;;;37.86;35.07;100731.13;5046703;28;20357;-67
2022/08/25 06:20:12;;;;;;;10.10;9.70;;;;;;;38.28;35.23;100734.25;5046903;28;20033;-66
2022/08/25 06:22:39;;;;;;;9.88;9.48;;;;;;;37.83;36.48;100732.66;5046605;28;20024;-67
2022/08/25 06:25:05;;;;;;;10.07;9.68;;;;;;;39.04;33.76;100732.09;5046627;28;20060;-67
2022/08/25 06:27:31;;;;;;;10.07;9.68;;;;;;;37.87;35.26;100729.97;5048269;28;20507;-67
2022/08/25 06:29:56;;;;;;;10.18;9.77;;;;;;;39.02;33.77;100731.69;5048363;28;20037;-67
2022/08/25 06:32:22;;;;;;;10.23;9.82;;;;;;;39.14;32.93;100730.75;5047011;28;20094;-69
2022/08/25 06:34:47;;;;;;;10.60;10.10;;;;;;;39.12;33.21;100727.53;5047425;28;20033;-69
2022/08/25 06:37:13;;;;;;;10.15;9.75;;;;;;;39.05;31.92;100732.91;5046878;28;20529;-70
2022/08/25 06:39:38;;;;;;;10.27;9.88;;;;;;;38.91;33.45;100725.88;5044503;28;20052;-70
2022/08/25 06:42:04;;;;;;;10.15;9.75;;;;;;;40.26;31.04;100727.03;5046419;28;20036;-70
2022/08/25 06:44:30;;;;;;;10.20;9.80;;;;;;;40.77;30.25;100729.47;5048140;28;20035;-71
2022/08/25 06:46:56;;;;;;;10.05;9.65;;;;;;;40.67;30.17;100730.88;5050152;28;20130;-72
2022/08/25 06:49:22;;;;;;;9.95;9.55;;;;;;;40.31;29.91;100730.28;5054179;28;20024;-71
2022/08/25 06:51:49;;;;;;;10.60;10.10;;;;;;;40.10;30.18;100731.91;5050263;28;20043;-70
2022/08/25 06:54:14;;;;;;;10.55;10.05;;;;;;;40.35;29.69;100732.34;5049028;28;20119;-69
2022/08/25 06:56:40;;;;;;;9.95;9.55;;;;;;;39.86;29.27;100721.91;5048089;28;20207;-70
2022/08/25 06:59:08;;;;;;;10.27;9.88;;;;;;;40.71;27.73;100722.63;5056353;28;20043;-71
2022/08/25 07:01:34;;;;;;;10.25;9.85;;;;;;;41.52;26.67;100728.53;5050229;28;20114;-70
2022/08/25 07:04:03;;;;;;;10.65;10.15;;;;;;;41.30;26.12;100727.47;5049840;28;20033;-68
2022/08/25 07:06:34;;;;;;;10.20;9.80;;;;;;;41.36;26.97;100730.72;5050696;28;20045;-71
2022/08/25 07:09:00;;;;;;;10.38;9.95;;;;;;;40.63;26.71;100730.06;5050034;28;20028;-70
2022/08/25 07:11:26;;;;;;;10.50;10.00;;;;;;;42.11;25.47;100729.56;5049994;28;20025;-70
2022/08/25 07:13:52;;;;;;;9.77;9.38;;;;;;;41.35;26.38;100724.34;5049987;28;20044;-69
2022/08/25 07:16:19;;;;;;;10.00;9.60;;;;;;;41.33;26.06;100720.31;5060356;28;20025;-70
2022/08/25 07:18:46;;;;;;;10.00;9.60;;;;;;;40.29;27.26;100720.72;5048413;28;20032;-70
2022/08/25 07:21:13;;;;;;;10.00;9.60;;;;;;;41.11;26.66;100720.03;5049827;28;20532;-70
2022/08/25 07:23:40;;;;;;;9.77;9.38;;;;;;;41.45;25.30;100714.50;5049824;28;20549;-70
2022/08/25 07:26:13;;;;;;;9.70;9.30;;;;;;;41.33;25.27;100720.31;5049344;28;20119;-69
2022/08/25 07:28:39;;;;;;;9.85;9.45;;;;;;;41.89;24.61;100711.81;5049747;28;20473;-70
2022/08/25 07:31:05;;;;;;;9.88;9.48;;;;;;;41.37;25.82;100699.72;5049645;28;20052;-70
2022/08/25 07:33:31;;;;;;;10.07;9.68;;;;;;;41.08;24.92;100704.09;5048937;28;20095;-70
2022/08/25 07:35:57;;;;;;;9.90;9.50;;;;;;;41.56;25.13;100700.69;5055163;28;20451;-68
2022/08/25 07:38:23;;;;;;;10.05;9.65;;;;;;;41.68;24.88;100697.66;5049399;28;20021;-71
2022/08/25 07:40:53;;;;;;;10.30;9.90;;;;;;;41.73;25.02;100694.56;5048667;28;20937;-70
2022/08/25 07:43:20;;;;;;;10.18;9.77;;;;;;;42.25;24.58;100691.88;5049829;28;20025;-69
2022/08/25 07:45:46;;;;;;;10.25;9.85;;;;;;;41.93;24.10;100689.56;5060429;28;20044;-70
2022/08/25 07:48:12;;;;;;;10.20;9.80;;;;;;;42.39;23.41;100689.19;5050103;28;20775;-70
2022/08/25 07:50:44;;;;;;;10.52;10.02;;;;;;;42.67;22.84;100686.59;5048885;28;20033;-70
2022/08/25 07:53:12;;;;;;;10.70;10.20;;;;;;;42.67;22.92;100674.63;5053621;28;20078;-67
2022/08/25 07:55:38;;;;;;;10.25;9.85;;;;;;;42.52;22.01;100672.91;5049161;28;20032;-71
2022/08/25 07:58:05;;;;;;;10.45;9.98;;;;;;;41.97;23.01;100670.09;5057861;28;20093;-69
2022/08/25 08:00:35;;;;;;;10.80;10.30;;;;;;;43.13;22.38;100668.53;5051876;28;20127;-69
2022/08/25 08:03:03;;;;;;;10.10;9.70;;;;;;;42.23;22.65;100667.13;5048100;28;20028;-71
2022/08/25 08:05:29;;;;;;;10.43;9.95;;;;;;;42.61;23.59;100665.06;5046547;28;20033;-69
2022/08/25 08:07:56;;;;;;;10.25;9.85;;;;;;;43.15;22.23;100668.91;5048930;28;20028;-69
2022/08/25 08:10:24;;;;;;;10.10;9.70;;;;;;;41.72;23.94;100664.25;5047321;28;20033;-69
2022/08/25 08:12:50;;;;;;;10.10;9.70;;;;;;;41.47;24.07;100661.22;5058768;28;20104;-68
2022/08/25 08:15:16;;;;;;;9.90;9.50;;;;;;;41.78;24.23;100665.53;5052638;28;20578;-68
2022/08/25 08:17:41;;;;;;;9.73;9.32;;;;;;;42.10;23.91;100663.03;5052684;28;20026;-68
2022/08/25 08:20:09;;;;;;;10.02;9.63;;;;;;;38.28;27.24;100658.63;5050772;28;20091;-68
2022/08/25 08:22:37;;;;;;;9.82;9.43;;;;;;;38.55;26.45;100652.13;5050962;28;20495;-67
2022/08/25 08:25:04;;;;;;;10.00;9.60;;;;;;;40.30;25.62;100655.63;5052171;28;20044;-66
2022/08/25 08:27:30;;;;;;;10.20;9.80;;;;;;;40.39;25.73;100652.56;5051484;28;20045;-67
2022/08/25 08:29:56;;;;;;;9.93;9.52;;;;;;;40.06;26.36;100651.25;5051151;28;20071;-69
2022/08/25 08:32:21;;;;;;;10.02;9.63;;;;;;;40.53;25.82;100645.25;5049518;28;20024;-67
2022/08/25 08:34:47;;;;;;;10.07;9.68;;;;;;;39.53;26.48;100645.53;5052156;28;20028;-68
2022/08/25 08:37:14;;;;;;;10.20;9.80;;;;;;;39.28;27.05;100639.47;5051685;28;20029;-68
2022/08/25 08:39:40;;;;;;;10.25;9.82;;;;;;;38.66;27.67;100635.75;5051439;28;20025;-68
2022/08/25 08:42:18;;;;;;;10.05;9.65;;;;;;;39.76;27.29;100635.25;5051687;28;20032;-67
2022/08/25 08:44:43;;;;;;;10.38;9.90;;;;;;;39.11;27.78;100632.38;5051849;28;20481;-67
2022/08/25 08:47:36;;;;;;;10.10;9.70;;;;;;;37.97;27.93;100632.50;5051909;28;20052;-67
2022/08/25 08:50:13;;;;;;;10.63;10.13;;;;;;;38.60;27.97;100623.31;5052096;28;20028;-67
2022/08/25 08:52:49;;;;;;;10.30;9.90;;;;;;;38.35;27.80;100625.53;5051364;28;20021;-67
2022/08/25 08:55:48;;;;;;;10.18;9.77;;;;;;;38.32;27.75;100631.78;5051997;28;20119;-67
2022/08/25 08:58:22;;;;;;;10.40;9.90;;;;;;;37.20;28.73;100621.69;5041842;28;20033;-66
2022/08/25 09:00:53;;;;;;;10.57;10.07;;;;;;;38.31;27.70;100619.91;5051989;28;20037;-72
2022/08/25 09:03:43;;;;;;;10.23;9.82;;;;;;;38.47;27.83;100613.53;5047227;28;20508;-67
2022/08/25 09:06:24;;;;;;;10.50;10.00;;;;;;;37.66;26.96;100611.09;5042708;28;20396;-70
2022/08/25 09:08:54;;;;;;;10.55;10.05;;;;;;;37.73;27.76;100608.53;5048783;28;20025;-70
2022/08/25 09:11:38;;;;;;;10.32;9.90;;;;;;;38.43;26.50;100603.16;5050320;28;20033;-70
2022/08/25 09:14:10;;;;;;;10.50;10.00;;;;;;;38.81;25.72;100603.63;5050105;28;20070;-70
2022/08/25 09:16:53;;;;;;;10.70;10.20;;;;;;;37.61;27.44;100600.31;5051450;28;20036;-70
2022/08/25 09:19:40;;;;;;;10.07;9.68;;;;;;;38.60;25.69;100590.84;5051339;28;20090;-70
2022/08/25 09:22:27;;;;;;;10.00;9.60;;;;;;;35.82;28.34;100583.03;5050142;28;20044;-70
2022/08/25 09:25:03;;;;;;;10.50;10.00;;;;;;;36.68;27.99;100585.78;5049859;28;20028;-70
2022/08/25 09:27:32;;;;;;;10.80;10.30;;;;;;;36.95;27.42;100579.53;5049277;28;20654;-70
2022/08/25 09:30:08;;;;;;;10.18;9.77;;;;;;;36.71;27.23;100582.31;5049881;28;20048;-69
2022/08/25 09:32:39;;;;;;;10.70;10.20;;;;;;;37.08;26.61;100571.94;5045265;28;20496;-69
2022/08/25 09:35:07;;;;;;;10.60;10.10;;;;;;;37.74;25.80;100567.78;5056072;28;20070;-69
2022/08/25 09:37:32;;;;;;;10.90;10.40;;;;;;;37.59;26.12;100570.19;5039502;28;20057;-71
2022/08/25 09:39:57;;;;;;;10.90;10.40;;;;;;;34.77;27.62;100559.53;5040777;28;20051;-72
2022/08/25 09:42:51;;;;;;;11.10;10.60;;;;;;;35.46;26.98;100552.59;5046219;28;20059;-71
2022/08/25 09:45:31;;;;;;;10.90;10.40;;;;;;;33.86;27.36;100547.25;5045876;28;20033;-71
2022/08/25 09:47:57;;;;;;;10.88;10.38;;;;;;;34.67;27.63;100549.75;5041968;28;20032;-71
2022/08/25 09:50:22;;;;;;;11.18;10.68;;;;;;;36.31;26.94;100543.59;5042692;28;20025;-71
2022/08/25 09:52:48;;;;;;;11.30;10.80;;;;;;;36.29;27.44;100540.38;5050429;28;20520;-69
2022/08/25 09:55:13;;;;;;;10.45;9.95;;;;;;;34.23;26.46;100529.94;5046789;28;20032;-71
2022/08/25 09:57:42;;;;;;;10.55;10.05;;;;;;;33.83;27.19;100540.47;5060166;28;20488;-71
2022/08/25 10:00:20;;;;;;;10.60;10.10;;;;;;;34.21;27.12;100532.19;5046517;28;20084;-70
2022/08/25 10:03:03;;;;;;;10.68;10.18;;;;;;;35.53;25.98;100528.00;5043536;28;20040;-71
2022/08/25 10:05:34;;;;;;;10.57;10.07;;;;;;;35.02;26.70;100521.88;5041885;28;20020;-72
2022/08/25 10:08:09;;;;;;;10.70;10.20;;;;;;;33.34;28.00;100517.13;5050440;28;20238;-69
2022/08/25 10:10:42;;;;;;;11.13;10.63;;;;;;;34.93;26.73;100513.69;5045387;28;20378;-71
2022/08/25 10:13:18;;;;;;;10.80;10.30;;;;;;;33.91;27.99;100501.13;5048508;28;20025;-71
2022/08/25 10:15:44;;;;;;;10.70;10.20;;;;;;;34.92;28.23;100497.50;5046389;28;20060;-70
2022/08/25 10:18:24;;;;;;;10.65;10.15;;;;;;;32.64;28.41;100497.19;5051792;28;20028;-68
2022/08/25 10:21:10;;;;;;;10.75;10.25;;;;;;;32.90;28.44;100492.47;5046654;28;20145;-73
2022/08/25 10:23:45;;;;;;;10.85;10.35;;;;;;;32.70;26.99;100502.19;5041584;28;20487;-69
2022/08/25 10:26:20;;;;;;;10.35;9.93;;;;;;;33.52;27.02;100486.53;5043500;28;20033;-69
2022/08/25 10:28:55;;;;;;;11.25;10.75;;;;;;;33.72;27.24;100485.00;5044467;28;20082;-70
2022/08/25 10:31:26;;;;;;;11.07;10.57;;;;;;;32.58;28.13;100487.47;5050058;28;20440;-69
2022/08/25 10:34:20;;;;;;;10.80;10.30;;;;;;;32.40;27.66;100494.91;5050470;28;20024;-71
2022/08/25 10:36:51;;;;;;;10.98;10.48;;;;;;;32.50;27.91;100493.78;5045435;28;20036;-69
2022/08/25 10:39:25;;;;;;;11.02;10.52;;;;;;;32.30;28.21;100498.72;5050523;28;20056;-71
2022/08/25 10:42:02;;;;;;;;;;;;;;;32.86;28.01;100491.53;5049043;28;20496;-70
2022/08/25 10:47:51;;;;;;;10.88;10.38;;;;;;;33.19;28.69;100489.03;5050496;28;20210;-71
2022/08/25 10:50:22;;;;;;;10.75;10.25;;;;;;;32.94;29.11;100478.91;5050445;28;20136;-69
2022/08/25 10:53:03;;;;;;;10.93;10.43;;;;;;;32.70;29.67;100477.47;5062226;28;20135;-69
2022/08/25 10:56:06;;;;;;;11.02;10.52;;;;;;;33.38;28.94;100483.19;5049574;28;20052;-69
2022/08/25 10:58:49;;;;;;;11.15;10.65;;;;;;;32.79;29.65;100473.91;5049597;28;20024;-68
2022/08/25 11:01:37;;;;;;;10.80;10.30;;;;;;;32.89;29.71;100468.09;5040097;28;20255;-70
2022/08/25 11:04:25;;;;;;;10.80;10.30;;;;;;;32.16;30.03;100482.41;5048507;28;20637;-71
2022/08/25 11:06:57;;;;;;;10.75;10.25;;;;;;;32.17;29.82;100485.94;5037779;28;20132;-71
2022/08/25 11:09:28;;;;;;;11.30;10.80;;;;;;;32.81;30.05;100463.38;5047484;28;20025;-71
2022/08/25 11:12:01;;;;;;;11.02;10.52;;;;;;;33.09;29.84;100458.34;5044035;28;20025;-72
2022/08/25 11:14:32;;;;;;;10.63;10.13;;;;;;;32.26;29.71;100456.59;5055025;28;20441;-70
2022/08/25 11:17:00;;;;;;;10.80;10.30;;;;;;;33.46;29.16;100445.81;5048580;28;20115;-70
2022/08/25 11:19:34;;;;;;;10.65;10.15;;;;;;;32.00;29.34;100455.75;5051149;28;20025;-69
2022/08/25 11:22:05;;;;;;;11.18;10.68;;;;;;;32.83;29.59;100444.63;5044942;28;20032;-70
2022/08/25 11:24:38;;;;;;;11.20;10.70;;;;;;;33.43;29.46;100441.78;5047648;28;20392;-70
2022/08/25 11:27:09;;;;;;;10.65;10.15;;;;;;;33.79;29.52;100433.00;5071816;28;20078;-70
2022/08/25 11:29:37;;;;;;;11.13;10.63;;;;;;;33.26;29.79;100433.53;5037115;28;20025;-71